Terminal Aerodrome Forecast
Issued by NWS

Home | Current Version | Previous Version | Text Only | Print | Product List | Glossary On
Versions: 1 2 3 4 5 6 7 8 9 10 11 12 13 14 15
000
FTUS41 KALY 300538
TAFPSF
TAF
KPSF 300538Z 3006/0106 25007KT P6SM OVC070
     FM300900 VRB03KT P6SM SCT030 OVC050
      TEMPO 3009/3012 BKN030
     FM301200 VRB03KT P6SM BKN035
     FM301800 28005KT P6SM SCT035 SCT250
     FM302300 VRB03KT P6SM BKN035 OVC200=

USA.gov is the U.S. government's official web portal to all federal, state and local government web resources and services.